METAR Data
IDs: Format: Raw Decoded Include TAF

Data at: 0956 UTC 13 Aug 2022

ESMT 130950Z AUTO 22004KT 160V280 9999 NCD 27/13 Q1021